Terminal Aerodrome Forecast
Issued by NWS Grand Junction, CO

Home | Current Version | Previous Version | Text Only | Print | Product List | Glossary On
Versions: 1 2 3 4 5 6 7 8 9 10 11 12 13 14 15
000
FTUS45 KGJT 061144
TAFGJT
TAF
KGJT 061144Z 0612/0712 10015KT P6SM BKN130
     FM061700 17014G25KT P6SM VCTS BKN200CB
     FM070000 20015G30KT P6SM VCSH BKN200
     FM070200 24011KT P6SM BKN110
     FM070400 16005KT P6SM BKN090
     FM070600 12007KT P6SM BKN120=

USA.gov is the U.S. government's official web portal to all federal, state and local government web resources and services.